ADDS TAF Board (Experimental) INFO Settings
IDs: Format: Expanded Condensed

KLAX - Los Angeles Intl, CA, US

Issued at 1500 UTC 26 Sep 2016
Updated at 1720 UTC 26 Sep 2016
Time1653Z 26/18Z 26/19Z 26/20Z 26/21Z 26/22Z 26/23Z 27/00Z 27/01Z 27/02Z 27/03Z 27/04Z 27/05Z 27/06Z
Type OBS PRVL PRVL PRVL PRVL PRVL PRVL PRVL PRVL PRVL PRVL PRVL PRVL PRVL
VIS 10 >6 >6 >6 >6 >6 >6 >6 >6 >6 >6 >6 >6 >6
CIG -- -- -- -- -- -- -- -- -- -- -- -- -- --
Cover SCT FEW SKC SKC SKC SKC SKC SKC SKC SKC SKC SKC SKC SKC
FltCat VFR VFR VFR VFR VFR VFR VFR VFR VFR VFR VFR VFR VFR VFR
WX -- -- -- -- -- -- -- -- -- -- -- -- -- --
WDir 30 70 250 250 260 260 260 260 260 260 260 260 260 260
WSpd 7 3 7 7 14 14 14 14 14 14 7 7 7 7
WGst -- -- -- -- -- -- -- -- -- -- -- -- -- --
R06/24
XWnd 6 1 -2 -2 -1 -1 -1 -1 -1 -1 -0 -0 -0 -0
HWnd 4 3 -7 -7 -14 -14 -14 -14 -14 -14 -7 -7 -7 -7
R07/25
XWnd 6 1 -2 -2 -1 -1 -1 -1 -1 -1 -0 -0 -0 -0
HWnd 4 3 -7 -7 -14 -14 -14 -14 -14 -14 -7 -7 -7 -7

Raw TAF
KLAX 261500Z 2615/2718 07003KT P6SM FEW140 WS010/07025KT
  FM261900 25007KT P6SM SKC
  FM262100 26014KT P6SM SKC
  FM270300 26007KT P6SM SKC
  FM270900 VRB03KT P6SM SKC


Raw METAR
KLAX 261653Z 03007KT 10SM FEW150 SCT180 34/M03 A2995 RMK AO2 SLP138 T03441033
KLAX 261553Z 10003KT 10SM FEW140 SCT180 31/M03 A2995 RMK AO2 SLP138 T03061028
KLAX 261453Z 07003KT 10SM FEW140 FEW180 28/M03 A2994 RMK AO2 SLP136 T02781028 51011

METAR Board
Radar Display
Forecast Discussion

TAF Board Legend

Potential Impact
Threat None Slight Moderate High
Visibility (sm) ≥5.1 5.1>X≥3 3>X≥1 <1
Ceiling (100 ft) ≥30.1 30.1>X≥10 10>X≥5 <5
Wind Speed (kt) <10 10≤X<20 20≤X<30 ≥30
Wind Gust (kt) <15 15≤X<25 25≤X<35 ≥35
Weather No Wx Reported VCTS,-TS,-FZRA,SN TS,FZRA +TS,+FZRA,+SN